X  Close Metar Aviation Weather Data     YSDU Dubbo City Regional Airport
Temperature
17°C Temperature
7°C Dewpoint
52% Humidity



Wind
10 KM/H
6 MPH
3 M/S
5 KTS



240°
WSW
Current Conditions

Clear Clear
Pressure 1017.95 (hPa) - 30.06 (inHg)
Visibility 6 (mile) - 9.7 (km)
Airport
Airport-code YSDU

Location: Dubbo City Regional Airport
Distance: 100 (km)

Metar:
YSDU 190200Z AUTO 24005KT 9999 // NCD 17/07 Q1018 RF00.0/000.0

Time: 19-04-2024 12:00 AEST